createdAt,value
2022-09-25T00:01:16.919Z,18.27
2022-09-25T00:03:44.254Z,19.63
2022-09-25T00:06:20.073Z,18.00
2022-09-25T00:08:47.482Z,18.38
2022-09-25T00:11:17.851Z,16.65
2022-09-25T00:13:46.014Z,25.15
2022-09-25T00:16:26.931Z,19.90
2022-09-25T00:19:15.288Z,18.15
2022-09-25T00:21:43.381Z,23.65
2022-09-25T00:24:12.706Z,19.35
2022-09-25T00:29:15.772Z,18.83
2022-09-25T00:31:42.800Z,18.80
2022-09-25T00:34:11.031Z,16.52
2022-09-25T00:36:38.848Z,15.02
2022-09-25T00:39:06.065Z,15.55
2022-09-25T00:41:33.618Z,17.95
2022-09-25T00:44:03.336Z,12.02
2022-09-25T00:46:34.424Z,16.52
2022-09-25T00:49:23.847Z,23.40
2022-09-25T00:54:52.714Z,16.40
2022-09-25T00:57:26.083Z,20.30
2022-09-25T00:59:59.993Z,14.75
2022-09-25T01:02:35.231Z,13.50
2022-09-25T01:05:14.099Z,15.77
2022-09-25T01:07:45.699Z,32.63
2022-09-25T01:10:14.202Z,31.98
2022-09-25T01:12:44.622Z,27.08
2022-09-25T01:15:14.804Z,22.88
2022-09-25T01:18:09.623Z,14.32
2022-09-25T01:21:09.022Z,32.30
2022-09-25T01:27:18.484Z,62.50
2022-09-25T01:30:05.937Z,53.78
2022-09-25T01:33:07.101Z,54.65
2022-09-25T01:36:16.457Z,39.40
2022-09-25T01:41:44.487Z,21.70
2022-09-25T01:44:22.814Z,21.00
2022-09-25T01:46:53.462Z,21.02
2022-09-25T01:49:31.853Z,15.82
2022-09-25T01:52:00.858Z,19.20
2022-09-25T01:54:48.392Z,15.25
2022-09-25T01:57:34.594Z,15.55
2022-09-25T02:00:11.075Z,17.00
2022-09-25T02:03:05.704Z,11.82
2022-09-25T02:05:52.062Z,14.02
2022-09-25T02:08:28.512Z,12.65
2022-09-25T02:11:01.559Z,9.30
2022-09-25T02:13:47.235Z,9.25
2022-09-25T02:16:22.555Z,8.07
2022-09-25T02:19:08.483Z,10.27
2022-09-25T02:21:38.300Z,13.05
2022-09-25T02:24:33.222Z,12.48
2022-09-25T02:27:00.379Z,17.60
2022-09-25T02:29:27.504Z,17.05
2022-09-25T02:32:04.325Z,38.20
2022-09-25T02:34:32.521Z,24.42
2022-09-25T02:36:59.706Z,20.95
2022-09-25T02:39:29.971Z,11.85
2022-09-25T02:42:28.102Z,23.20
2022-09-25T02:45:28.995Z,17.75
2022-09-25T02:48:01.690Z,19.90
2022-09-25T02:50:47.212Z,18.45
2022-09-25T02:53:52.286Z,30.40
2022-09-25T02:56:32.637Z,25.40
2022-09-25T02:59:15.041Z,24.95
2022-09-25T03:01:43.458Z,24.33
2022-09-25T03:04:10.991Z,33.47
2022-09-25T03:06:39.165Z,36.05
2022-09-25T03:09:08.355Z,19.02
2022-09-25T03:11:41.623Z,16.70
2022-09-25T03:14:09.387Z,11.73
2022-09-25T03:16:58.734Z,13.95
2022-09-25T03:21:55.144Z,11.68
2022-09-25T03:24:23.149Z,13.63
2022-09-25T03:26:50.878Z,12.77
2022-09-25T03:29:18.004Z,22.65
2022-09-25T03:31:45.270Z,9.95
2022-09-25T03:34:15.810Z,10.63
2022-09-25T03:36:46.645Z,10.70
2022-09-25T03:39:17.188Z,11.85
2022-09-25T03:41:44.577Z,9.77
2022-09-25T03:44:12.168Z,10.05
2022-09-25T03:46:39.607Z,9.02
2022-09-25T03:49:09.849Z,12.20
2022-09-25T03:51:38.287Z,19.17
2022-09-25T03:54:05.540Z,27.63
2022-09-25T03:56:32.846Z,29.15
2022-09-25T03:59:00.054Z,30.42
2022-09-25T04:01:28.263Z,34.35
2022-09-25T04:03:56.077Z,33.53
2022-09-25T04:06:25.758Z,26.52
2022-09-25T04:08:53.752Z,24.27
2022-09-25T04:11:23.858Z,17.98
2022-09-25T04:13:51.945Z,23.45
2022-09-25T04:16:20.411Z,17.02
2022-09-25T04:18:47.785Z,20.48
2022-09-25T04:21:16.269Z,23.17
2022-09-25T04:24:03.423Z,14.02
2022-09-25T04:26:31.730Z,13.07
2022-09-25T04:29:03.202Z,9.82
2022-09-25T04:31:31.270Z,15.88
2022-09-25T04:33:58.502Z,30.98
2022-09-25T04:36:25.547Z,38.72
2022-09-25T04:38:52.679Z,52.45
2022-09-25T04:41:19.893Z,45.80
2022-09-25T04:43:47.666Z,65.53
2022-09-25T04:46:20.984Z,52.75
2022-09-25T04:48:49.868Z,37.08
2022-09-25T04:51:16.978Z,22.05
2022-09-25T04:53:44.133Z,27.25
2022-09-25T04:56:15.571Z,16.35
2022-09-25T04:58:45.662Z,21.85
2022-09-25T05:01:12.901Z,24.35
2022-09-25T05:03:40.066Z,40.35
2022-09-25T05:06:07.240Z,57.30
2022-09-25T05:08:34.488Z,51.20
2022-09-25T05:11:03.271Z,49.30
2022-09-25T05:13:30.459Z,65.65
2022-09-25T05:15:57.576Z,43.47
2022-09-25T05:18:24.882Z,15.45
2022-09-25T05:20:53.606Z,19.02
2022-09-25T05:23:21.476Z,15.52
2022-09-25T05:25:54.709Z,14.38
2022-09-25T05:28:22.775Z,10.63
2022-09-25T05:30:50.366Z,12.05
2022-09-25T05:33:18.470Z,10.90
2022-09-25T05:35:46.237Z,14.50
2022-09-25T05:38:13.364Z,8.35
2022-09-25T05:40:40.489Z,19.63
2022-09-25T05:43:08.195Z,7.38
2022-09-25T05:45:35.415Z,10.95
2022-09-25T05:48:08.158Z,9.80
2022-09-25T05:50:35.709Z,12.80
2022-09-25T05:53:04.677Z,11.63
2022-09-25T05:55:31.988Z,14.88
2022-09-25T05:58:04.069Z,13.60
2022-09-25T06:00:32.636Z,13.18
2022-09-25T06:03:01.284Z,14.60
2022-09-25T06:05:29.358Z,12.40
2022-09-25T06:07:56.528Z,10.13
2022-09-25T06:10:27.464Z,15.88
2022-09-25T06:12:59.905Z,21.85
2022-09-25T06:15:36.749Z,22.50
2022-09-25T06:18:05.089Z,16.08
2022-09-25T06:20:32.364Z,17.53
2022-09-25T06:23:03.006Z,20.45
2022-09-25T06:25:35.814Z,19.10
2022-09-25T06:28:03.196Z,21.75
2022-09-25T06:30:33.859Z,30.33
2022-09-25T06:33:10.249Z,22.02
2022-09-25T06:35:45.421Z,14.13
2022-09-25T06:38:14.634Z,16.42
2022-09-25T06:40:42.433Z,18.05
2022-09-25T06:43:12.896Z,20.85
2022-09-25T06:45:41.467Z,21.00
2022-09-25T06:50:54.486Z,14.48
2022-09-25T06:53:24.798Z,18.77
2022-09-25T06:55:54.619Z,16.95
2022-09-25T06:58:23.297Z,21.08
2022-09-25T07:00:53.246Z,25.65
2022-09-25T07:03:39.392Z,26.65
2022-09-25T07:06:10.298Z,27.52
2022-09-25T07:08:38.351Z,35.47
2022-09-25T07:11:06.347Z,43.80
2022-09-25T07:13:35.542Z,39.75
2022-09-25T07:16:05.946Z,39.40
2022-09-25T07:18:33.931Z,40.67
2022-09-25T07:21:04.908Z,39.83
2022-09-25T07:23:33.116Z,36.60
2022-09-25T07:26:15.938Z,37.57
2022-09-25T07:28:43.989Z,44.20
2022-09-25T07:31:22.685Z,35.30
2022-09-25T07:33:50.040Z,38.03
2022-09-25T07:36:18.155Z,39.58
2022-09-25T07:38:52.618Z,30.52
2022-09-25T07:41:21.990Z,23.63
2022-09-25T07:46:45.413Z,19.35
2022-09-25T07:49:13.453Z,20.77
2022-09-25T07:51:40.727Z,17.05
2022-09-25T07:54:08.269Z,18.13
2022-09-25T07:56:37.438Z,13.38
2022-09-25T08:01:31.502Z,18.20
2022-09-25T08:03:58.874Z,18.45
2022-09-25T08:06:26.019Z,13.77
2022-09-25T08:08:53.193Z,15.68
2022-09-25T08:11:22.605Z,16.45
2022-09-25T08:13:49.737Z,27.23
2022-09-25T08:16:18.478Z,20.48
2022-09-25T08:18:46.881Z,16.13
2022-09-25T08:21:16.934Z,17.35
2022-09-25T08:23:52.876Z,15.20
2022-09-25T08:26:22.423Z,14.77
2022-09-25T08:28:51.363Z,11.48
2022-09-25T08:31:18.801Z,16.25
2022-09-25T08:33:47.855Z,11.98
2022-09-25T08:38:43.169Z,16.85
2022-09-25T08:41:16.341Z,8.35
2022-09-25T08:44:05.177Z,5.78
2022-09-25T08:50:19.870Z,6.90
2022-09-25T08:52:54.601Z,5.88
2022-09-25T08:55:50.261Z,8.93
2022-09-25T08:58:31.746Z,7.95
2022-09-25T09:01:07.360Z,7.57
2022-09-25T09:03:48.240Z,4.72
2022-09-25T09:06:17.973Z,4.38
2022-09-25T09:08:57.604Z,5.28
2022-09-25T09:11:37.582Z,3.45
2022-09-25T09:14:10.290Z,4.05
2022-09-25T09:17:07.073Z,5.28
2022-09-25T09:19:34.369Z,8.55
2022-09-25T09:22:13.437Z,4.45
2022-09-25T09:24:51.638Z,5.78
2022-09-25T09:28:05.789Z,4.38
2022-09-25T09:30:51.504Z,5.75
2022-09-25T09:33:38.538Z,5.18
2022-09-25T09:36:29.918Z,2.55
2022-09-25T09:39:39.828Z,3.92
2022-09-25T09:42:37.417Z,2.00
2022-09-25T09:45:56.207Z,2.90
2022-09-25T09:49:01.566Z,4.60
2022-09-25T09:51:38.338Z,2.90
2022-09-25T09:54:32.208Z,4.05
2022-09-25T09:57:02.879Z,2.05
2022-09-25T09:59:49.746Z,2.28
2022-09-25T10:02:32.369Z,2.65
2022-09-25T10:05:03.930Z,1.80
2022-09-25T10:07:35.815Z,2.40
2022-09-25T10:10:14.678Z,1.95
2022-09-25T10:15:32.042Z,2.78
2022-09-25T10:18:01.440Z,3.97
2022-09-25T10:20:52.582Z,4.32
2022-09-25T10:23:38.532Z,5.45
2022-09-25T10:26:30.233Z,2.67
2022-09-25T10:29:00.491Z,4.38
2022-09-25T10:31:40.029Z,1.52
2022-09-25T10:34:29.018Z,1.13
2022-09-25T10:36:56.207Z,6.53
2022-09-25T10:39:44.248Z,1.63
2022-09-25T10:42:41.040Z,2.15
2022-09-25T10:45:34.599Z,5.60
2022-09-25T10:48:40.953Z,2.85
2022-09-25T10:51:09.973Z,2.60
2022-09-25T10:53:37.474Z,1.35
2022-09-25T10:56:10.537Z,2.63
2022-09-25T10:58:54.268Z,5.38
2022-09-25T11:01:37.598Z,1.65
2022-09-25T11:04:27.715Z,1.15
2022-09-25T11:07:07.033Z,1.80
2022-09-25T11:09:41.815Z,2.13
2022-09-25T11:12:26.978Z,1.30
2022-09-25T11:15:00.867Z,1.98
2022-09-25T11:17:32.127Z,1.73
2022-09-25T11:20:28.798Z,3.67
2022-09-25T11:23:33.483Z,3.92
2022-09-25T11:26:37.685Z,2.40
2022-09-25T11:29:35.359Z,3.03
2022-09-25T11:32:15.663Z,1.97
2022-09-25T11:35:29.264Z,1.75
2022-09-25T11:39:06.677Z,1.50
2022-09-25T11:41:58.000Z,2.45
2022-09-25T11:44:56.772Z,2.53
2022-09-25T11:47:55.290Z,1.67
2022-09-25T11:54:17.923Z,3.80
2022-09-25T11:57:34.700Z,1.20
2022-09-25T12:00:15.304Z,1.90
2022-09-25T12:03:12.642Z,8.73
2022-09-25T12:05:42.414Z,2.88
2022-09-25T12:08:30.745Z,1.95
2022-09-25T12:11:03.759Z,2.70
2022-09-25T12:14:09.643Z,2.10
2022-09-25T12:17:03.223Z,3.47
2022-09-25T12:20:32.121Z,2.13
2022-09-25T12:23:26.817Z,2.13
2022-09-25T12:26:05.074Z,4.75
2022-09-25T12:28:43.638Z,2.00
2022-09-25T12:31:42.230Z,2.20
2022-09-25T12:37:26.808Z,1.42
2022-09-25T12:40:37.059Z,2.00
2022-09-25T12:43:32.902Z,3.78
2022-09-25T12:46:19.678Z,2.55
2022-09-25T12:49:32.790Z,3.33
2022-09-25T12:52:26.907Z,2.63
2022-09-25T12:55:06.190Z,3.55
2022-09-25T12:57:45.169Z,2.00
2022-09-25T13:00:27.533Z,5.40
2022-09-25T13:03:25.988Z,7.40
2022-09-25T13:06:11.171Z,2.05
2022-09-25T13:09:17.589Z,3.92
2022-09-25T13:12:17.108Z,4.28
2022-09-25T13:14:59.420Z,2.95
2022-09-25T13:17:26.649Z,3.55
2022-09-25T13:19:53.958Z,2.80
2022-09-25T13:22:24.367Z,5.30
2022-09-25T13:25:15.299Z,1.95
2022-09-25T13:27:46.005Z,3.90
2022-09-25T13:30:25.012Z,2.95
2022-09-25T13:32:55.529Z,2.20
2022-09-25T13:35:24.053Z,3.00
2022-09-25T13:37:54.632Z,4.28
2022-09-25T13:40:44.505Z,2.40
2022-09-25T13:43:28.548Z,9.65
2022-09-25T13:46:20.702Z,2.65
2022-09-25T13:48:57.112Z,3.45
2022-09-25T13:51:25.304Z,11.07
2022-09-25T13:53:59.556Z,3.35
2022-09-25T13:56:48.046Z,6.75
2022-09-25T13:59:15.499Z,3.83
2022-09-25T14:01:46.181Z,1.70
2022-09-25T14:04:18.883Z,1.70
2022-09-25T14:06:51.831Z,2.28
2022-09-25T14:09:24.150Z,4.10
2022-09-25T14:12:25.558Z,2.05
2022-09-25T14:15:27.634Z,3.85
2022-09-25T14:17:56.934Z,2.00
2022-09-25T14:20:31.757Z,5.50
2022-09-25T14:23:05.290Z,2.25
2022-09-25T14:25:39.862Z,6.15
2022-09-25T14:28:27.599Z,2.45
2022-09-25T14:31:15.968Z,4.22
2022-09-25T14:33:58.650Z,1.63
2022-09-25T14:36:49.670Z,6.30
2022-09-25T14:39:28.201Z,2.17
2022-09-25T14:42:25.558Z,3.47
2022-09-25T14:45:21.991Z,4.15
2022-09-25T14:47:54.833Z,2.20
2022-09-25T14:50:34.087Z,1.90
2022-09-25T14:53:07.687Z,4.15
2022-09-25T14:55:42.656Z,2.10
2022-09-25T14:58:15.624Z,3.25
2022-09-25T15:00:53.401Z,1.98
2022-09-25T15:03:29.566Z,2.15
2022-09-25T15:06:03.115Z,2.67
2022-09-25T15:08:39.209Z,1.80
2022-09-25T15:11:17.631Z,2.08
2022-09-25T15:13:45.576Z,2.80
2022-09-25T15:16:41.185Z,4.23
2022-09-25T15:19:41.151Z,2.95
2022-09-25T15:22:18.943Z,3.13
2022-09-25T15:24:54.247Z,1.25
2022-09-25T15:27:22.332Z,3.10
2022-09-25T15:29:50.467Z,2.03
2022-09-25T15:32:28.575Z,3.25
2022-09-25T15:35:32.010Z,2.55
2022-09-25T15:38:17.764Z,3.30
2022-09-25T15:40:55.413Z,3.45
2022-09-25T15:43:22.560Z,4.63
2022-09-25T15:46:08.035Z,4.25
2022-09-25T15:48:50.320Z,4.38
2022-09-25T15:51:22.451Z,2.67
2022-09-25T15:53:56.169Z,2.40
2022-09-25T15:56:43.637Z,10.40
2022-09-25T15:59:58.676Z,8.13
2022-09-25T16:02:51.240Z,5.68
2022-09-25T16:05:34.720Z,6.10
2022-09-25T16:08:24.984Z,10.43
2022-09-25T16:11:24.576Z,6.72
2022-09-25T16:14:11.589Z,2.95
2022-09-25T16:16:51.373Z,3.15
2022-09-25T16:19:24.496Z,2.90
2022-09-25T16:21:52.473Z,2.65
2022-09-25T16:24:29.126Z,2.67
2022-09-25T16:27:05.671Z,5.10
2022-09-25T16:29:38.684Z,2.38
2022-09-25T16:32:14.713Z,2.17
2022-09-25T16:35:00.638Z,5.63
2022-09-25T16:37:35.159Z,3.40
2022-09-25T16:40:18.156Z,4.88
2022-09-25T16:42:46.817Z,4.60
2022-09-25T16:45:17.764Z,3.38
2022-09-25T16:47:49.467Z,8.38
2022-09-25T16:50:19.479Z,5.38
2022-09-25T16:52:48.490Z,5.63
2022-09-25T16:55:28.247Z,6.15
2022-09-25T16:57:57.856Z,7.28
2022-09-25T17:00:29.145Z,13.57
2022-09-25T17:02:56.486Z,9.15
2022-09-25T17:05:30.428Z,7.03
2022-09-25T17:08:14.277Z,6.32
2022-09-25T17:10:41.625Z,10.05
2022-09-25T17:13:12.953Z,11.63
2022-09-25T17:15:41.449Z,11.63
2022-09-25T17:18:20.584Z,13.70
2022-09-25T17:20:53.168Z,7.35
2022-09-25T17:23:22.247Z,10.95
2022-09-25T17:28:28.069Z,7.45
2022-09-25T17:30:55.678Z,5.13
2022-09-25T17:33:23.332Z,6.53
2022-09-25T17:36:05.260Z,6.68
2022-09-25T17:38:33.538Z,5.25
2022-09-25T17:41:05.815Z,9.75
2022-09-25T17:43:33.777Z,5.20
2022-09-25T17:46:01.192Z,6.28
2022-09-25T17:48:31.222Z,6.00
2022-09-25T17:51:09.205Z,4.93
2022-09-25T17:53:36.242Z,5.20
2022-09-25T17:56:03.680Z,7.68
2022-09-25T17:58:31.518Z,7.50
2022-09-25T18:01:00.497Z,9.00
2022-09-25T18:05:58.706Z,4.85
2022-09-25T18:08:25.928Z,5.93
2022-09-25T18:10:58.034Z,5.95
2022-09-25T18:13:25.236Z,3.83
2022-09-25T18:15:59.599Z,5.97
2022-09-25T18:18:46.940Z,7.50
2022-09-25T18:21:32.700Z,9.65
2022-09-25T18:24:00.033Z,14.95
2022-09-25T18:26:31.316Z,10.60
2022-09-25T18:28:58.844Z,7.97
2022-09-25T18:31:26.080Z,8.40
2022-09-25T18:33:54.496Z,7.13
2022-09-25T18:36:22.296Z,10.27
2022-09-25T18:38:49.439Z,4.93
2022-09-25T18:41:16.713Z,6.93
2022-09-25T18:43:43.919Z,7.45
2022-09-25T18:46:11.211Z,5.50
2022-09-25T18:48:38.648Z,5.65
2022-09-25T18:51:06.588Z,4.60
2022-09-25T18:53:33.872Z,5.85
2022-09-25T18:56:01.234Z,5.05
2022-09-25T18:58:29.661Z,6.82
2022-09-25T19:00:58.975Z,10.20
2022-09-25T19:03:26.247Z,10.23
2022-09-25T19:05:59.404Z,4.85
2022-09-25T19:08:26.746Z,4.07
2022-09-25T19:10:53.993Z,6.25
2022-09-25T19:13:21.376Z,5.05
2022-09-25T19:15:49.054Z,11.02
2022-09-25T19:18:16.178Z,13.77
2022-09-25T19:20:55.148Z,9.98
2022-09-25T19:26:02.062Z,16.30
2022-09-25T19:28:32.868Z,9.93
2022-09-25T19:31:06.653Z,12.80
2022-09-25T19:33:36.578Z,10.27
2022-09-25T19:36:09.525Z,9.30
2022-09-25T19:38:39.440Z,10.60
2022-09-25T19:41:25.496Z,10.07
2022-09-25T19:43:58.386Z,14.50
2022-09-25T19:46:27.558Z,35.13
2022-09-25T19:48:55.178Z,24.85
2022-09-25T19:51:23.771Z,32.72
2022-09-25T19:53:52.132Z,37.58
2022-09-25T19:56:20.300Z,38.35
2022-09-25T19:58:50.101Z,27.80
2022-09-25T20:01:23.444Z,20.88
2022-09-25T20:03:50.817Z,16.30
2022-09-25T20:06:18.182Z,17.92
2022-09-25T20:08:45.398Z,22.27
2022-09-25T20:11:19.603Z,27.70
2022-09-25T20:13:50.279Z,19.80
2022-09-25T20:16:21.415Z,15.63
2022-09-25T20:18:52.201Z,14.45
2022-09-25T20:21:22.385Z,11.55
2022-09-25T20:23:55.920Z,5.03
2022-09-25T20:26:23.914Z,9.05
2022-09-25T20:28:55.502Z,7.45
2022-09-25T20:31:23.406Z,12.35
2022-09-25T20:33:50.951Z,6.38
2022-09-25T20:36:18.598Z,8.20
2022-09-25T20:38:52.586Z,9.80
2022-09-25T20:41:21.796Z,9.35
2022-09-25T20:43:54.890Z,9.15
2022-09-25T20:46:23.487Z,10.80
2022-09-25T20:48:54.888Z,11.55
2022-09-25T20:51:29.089Z,20.65
2022-09-25T20:54:03.041Z,8.85
2022-09-25T20:56:31.775Z,11.27
2022-09-25T20:59:00.141Z,14.70
2022-09-25T21:01:33.820Z,9.18
2022-09-25T21:04:03.815Z,14.77
2022-09-25T21:06:35.197Z,18.67
2022-09-25T21:09:08.095Z,12.88
2022-09-25T21:11:36.829Z,16.67
2022-09-25T21:14:04.145Z,12.40
2022-09-25T21:16:32.920Z,17.67
2022-09-25T21:19:04.034Z,12.23
2022-09-25T21:21:33.678Z,22.23
2022-09-25T21:24:01.768Z,17.85
2022-09-25T21:26:30.837Z,14.85
2022-09-25T21:31:31.751Z,17.75
2022-09-25T21:33:59.670Z,16.15
2022-09-25T21:36:28.418Z,11.48
2022-09-25T21:38:55.888Z,7.85
2022-09-25T21:41:25.566Z,14.90
2022-09-25T21:43:59.527Z,10.25
2022-09-25T21:46:28.036Z,11.00
2022-09-25T21:49:04.722Z,10.30
2022-09-25T21:51:36.646Z,11.23
2022-09-25T21:54:06.789Z,19.10
2022-09-25T21:56:34.393Z,17.90
2022-09-25T21:59:08.844Z,23.02
2022-09-25T22:01:39.039Z,20.92
2022-09-25T22:04:09.708Z,29.30
2022-09-25T22:06:41.451Z,17.05
2022-09-25T22:09:13.815Z,22.17
2022-09-25T22:11:42.140Z,23.48
2022-09-25T22:14:15.381Z,23.50
2022-09-25T22:16:46.289Z,26.95
2022-09-25T22:19:23.190Z,20.17
2022-09-25T22:21:53.076Z,18.98
2022-09-25T22:24:21.955Z,16.13
2022-09-25T22:26:51.114Z,17.90
2022-09-25T22:31:47.664Z,17.45
2022-09-25T22:34:23.263Z,16.05
2022-09-25T22:36:56.182Z,14.98
2022-09-25T22:39:25.209Z,13.65
2022-09-25T22:41:53.873Z,17.55
2022-09-25T22:44:21.706Z,15.93
2022-09-25T22:46:49.125Z,15.68
2022-09-25T22:49:16.677Z,15.68
2022-09-25T22:51:43.989Z,18.92
2022-09-25T22:54:13.861Z,19.33
2022-09-25T22:56:42.218Z,11.88
2022-09-25T22:59:15.544Z,15.60
2022-09-25T23:01:53.867Z,13.52
2022-09-25T23:04:23.594Z,14.57
2022-09-25T23:06:51.273Z,14.13
2022-09-25T23:09:25.242Z,13.77
2022-09-25T23:11:54.796Z,12.02
2022-09-25T23:14:25.479Z,21.98
2022-09-25T23:16:54.160Z,13.52
2022-09-25T23:19:22.632Z,16.73
2022-09-25T23:21:53.833Z,12.00
2022-09-25T23:24:22.195Z,19.20
2022-09-25T23:26:49.997Z,16.37
2022-09-25T23:29:19.469Z,13.73
2022-09-25T23:31:47.893Z,16.92
2022-09-25T23:34:17.690Z,15.38
2022-09-25T23:36:44.809Z,14.48
2022-09-25T23:39:18.198Z,13.27
2022-09-25T23:41:46.027Z,18.33
2022-09-25T23:44:13.190Z,14.27
2022-09-25T23:46:42.015Z,9.27
2022-09-25T23:49:10.363Z,13.35
2022-09-25T23:51:38.036Z,13.60
2022-09-25T23:54:06.027Z,10.90
2022-09-25T23:56:35.277Z,11.80
2022-09-25T23:59:03.953Z,14.07
